sensor_id;sensor_type;location;lat;lon;timestamp;temperature;humidity
42615;DHT22;28754;47.700;7.924;2023-09-12T00:00:10;22.30;99.90
42615;DHT22;28754;47.700;7.924;2023-09-12T00:03:00;22.30;99.90
42615;DHT22;28754;47.700;7.924;2023-09-12T00:05:51;22.30;99.90
42615;DHT22;28754;47.700;7.924;2023-09-12T00:08:39;22.30;99.90
42615;DHT22;28754;47.700;7.924;2023-09-12T00:11:25;22.30;99.90
42615;DHT22;28754;47.700;7.924;2023-09-12T00:14:16;22.20;99.90
42615;DHT22;28754;47.700;7.924;2023-09-12T00:17:03;22.30;99.90
42615;DHT22;28754;47.700;7.924;2023-09-12T00:19:50;22.30;99.90
42615;DHT22;28754;47.700;7.924;2023-09-12T00:22:36;22.20;99.90
42615;DHT22;28754;47.700;7.924;2023-09-12T00:25:23;22.10;99.90
42615;DHT22;28754;47.700;7.924;2023-09-12T00:28:10;22.10;99.90
42615;DHT22;28754;47.700;7.924;2023-09-12T00:30:57;22.10;99.90
42615;DHT22;28754;47.700;7.924;2023-09-12T00:33:43;22.20;99.90
42615;DHT22;28754;47.700;7.924;2023-09-12T00:36:30;22.20;99.90
42615;DHT22;28754;47.700;7.924;2023-09-12T00:39:17;22.10;99.90
42615;DHT22;28754;47.700;7.924;2023-09-12T00:42:04;22.10;99.90
42615;DHT22;28754;47.700;7.924;2023-09-12T00:44:53;22.20;99.90
42615;DHT22;28754;47.700;7.924;2023-09-12T00:47:40;22.20;99.90
42615;DHT22;28754;47.700;7.924;2023-09-12T00:50:27;22.10;99.90
42615;DHT22;28754;47.700;7.924;2023-09-12T00:53:17;22.10;99.90
42615;DHT22;28754;47.700;7.924;2023-09-12T00:56:06;22.10;99.90
42615;DHT22;28754;47.700;7.924;2023-09-12T00:58:53;22.10;99.90
42615;DHT22;28754;47.700;7.924;2023-09-12T01:01:40;22.10;99.90
42615;DHT22;28754;47.700;7.924;2023-09-12T01:04:27;22.10;99.90
42615;DHT22;28754;47.700;7.924;2023-09-12T01:07:14;22.10;99.90
42615;DHT22;28754;47.700;7.924;2023-09-12T01:10:01;22.00;99.90
42615;DHT22;28754;47.700;7.924;2023-09-12T01:12:48;22.10;99.90
42615;DHT22;28754;47.700;7.924;2023-09-12T01:15:36;22.10;99.90
42615;DHT22;28754;47.700;7.924;2023-09-12T01:18:23;22.10;99.90
42615;DHT22;28754;47.700;7.924;2023-09-12T01:24:57;22.20;99.90
42615;DHT22;28754;47.700;7.924;2023-09-12T01:27:55;22.20;99.90
42615;DHT22;28754;47.700;7.924;2023-09-12T01:30:48;22.20;99.90
42615;DHT22;28754;47.700;7.924;2023-09-12T01:33:37;22.30;99.90
42615;DHT22;28754;47.700;7.924;2023-09-12T01:36:24;22.30;99.90
42615;DHT22;28754;47.700;7.924;2023-09-12T01:39:11;22.30;99.90
42615;DHT22;28754;47.700;7.924;2023-09-12T01:41:59;22.30;99.90
42615;DHT22;28754;47.700;7.924;2023-09-12T01:44:50;22.30;99.90
42615;DHT22;28754;47.700;7.924;2023-09-12T01:47:41;22.30;99.90
42615;DHT22;28754;47.700;7.924;2023-09-12T01:50:28;22.30;99.90
42615;DHT22;28754;47.700;7.924;2023-09-12T01:53:17;22.30;99.90
42615;DHT22;28754;47.700;7.924;2023-09-12T01:56:04;22.20;99.90
42615;DHT22;28754;47.700;7.924;2023-09-12T01:58:51;22.30;99.90
42615;DHT22;28754;47.700;7.924;2023-09-12T02:01:38;22.30;99.90
42615;DHT22;28754;47.700;7.924;2023-09-12T02:04:24;22.30;99.90
42615;DHT22;28754;47.700;7.924;2023-09-12T02:07:11;22.30;99.90
42615;DHT22;28754;47.700;7.924;2023-09-12T02:09:58;22.30;99.90
42615;DHT22;28754;47.700;7.924;2023-09-12T02:12:44;22.30;99.90
42615;DHT22;28754;47.700;7.924;2023-09-12T02:15:31;22.40;99.90
42615;DHT22;28754;47.700;7.924;2023-09-12T02:18:18;22.30;99.90
42615;DHT22;28754;47.700;7.924;2023-09-12T02:21:05;22.20;99.90
42615;DHT22;28754;47.700;7.924;2023-09-12T02:23:51;22.30;99.90
42615;DHT22;28754;47.700;7.924;2023-09-12T02:26:39;22.30;99.90
42615;DHT22;28754;47.700;7.924;2023-09-12T02:29:26;22.30;99.90
42615;DHT22;28754;47.700;7.924;2023-09-12T02:32:12;22.30;99.90
42615;DHT22;28754;47.700;7.924;2023-09-12T02:35:00;22.40;99.90
42615;DHT22;28754;47.700;7.924;2023-09-12T02:37:47;22.30;99.90
42615;DHT22;28754;47.700;7.924;2023-09-12T02:40:33;22.40;99.90
42615;DHT22;28754;47.700;7.924;2023-09-12T02:43:20;22.30;99.90
42615;DHT22;28754;47.700;7.924;2023-09-12T02:46:06;22.30;99.90
42615;DHT22;28754;47.700;7.924;2023-09-12T02:48:53;22.30;99.90
42615;DHT22;28754;47.700;7.924;2023-09-12T02:51:40;22.30;99.90
42615;DHT22;28754;47.700;7.924;2023-09-12T02:54:27;22.30;99.90
42615;DHT22;28754;47.700;7.924;2023-09-12T02:57:14;22.20;99.90
42615;DHT22;28754;47.700;7.924;2023-09-12T03:00:01;22.20;99.90
42615;DHT22;28754;47.700;7.924;2023-09-12T03:02:47;22.20;99.90
42615;DHT22;28754;47.700;7.924;2023-09-12T03:05:34;22.30;99.90
42615;DHT22;28754;47.700;7.924;2023-09-12T03:08:21;22.30;99.90
42615;DHT22;28754;47.700;7.924;2023-09-12T03:11:07;22.20;99.90
42615;DHT22;28754;47.700;7.924;2023-09-12T03:13:55;22.20;99.90
42615;DHT22;28754;47.700;7.924;2023-09-12T03:16:41;22.20;99.90
42615;DHT22;28754;47.700;7.924;2023-09-12T03:19:29;22.00;99.90
42615;DHT22;28754;47.700;7.924;2023-09-12T03:22:17;21.90;99.90
42615;DHT22;28754;47.700;7.924;2023-09-12T03:25:04;21.90;99.90
42615;DHT22;28754;47.700;7.924;2023-09-12T03:27:52;21.80;99.90
42615;DHT22;28754;47.700;7.924;2023-09-12T03:30:39;21.80;99.90
42615;DHT22;28754;47.700;7.924;2023-09-12T03:33:27;21.80;99.90
42615;DHT22;28754;47.700;7.924;2023-09-12T03:36:15;21.80;99.90
42615;DHT22;28754;47.700;7.924;2023-09-12T03:39:03;21.80;99.90
42615;DHT22;28754;47.700;7.924;2023-09-12T03:41:54;21.70;99.90
42615;DHT22;28754;47.700;7.924;2023-09-12T03:44:41;21.70;99.90
42615;DHT22;28754;47.700;7.924;2023-09-12T03:47:28;21.60;99.90
42615;DHT22;28754;47.700;7.924;2023-09-12T03:50:15;21.70;99.90
42615;DHT22;28754;47.700;7.924;2023-09-12T03:53:01;21.60;99.90
42615;DHT22;28754;47.700;7.924;2023-09-12T03:55:49;21.50;99.90
42615;DHT22;28754;47.700;7.924;2023-09-12T03:58:36;21.60;99.90
42615;DHT22;28754;47.700;7.924;2023-09-12T04:01:23;21.60;99.90
42615;DHT22;28754;47.700;7.924;2023-09-12T04:04:09;21.60;99.90
42615;DHT22;28754;47.700;7.924;2023-09-12T04:06:56;21.50;99.90
42615;DHT22;28754;47.700;7.924;2023-09-12T04:09:43;21.60;99.90
42615;DHT22;28754;47.700;7.924;2023-09-12T04:12:29;21.60;99.90
42615;DHT22;28754;47.700;7.924;2023-09-12T04:15:16;21.60;99.90
42615;DHT22;28754;47.700;7.924;2023-09-12T04:18:03;21.60;99.90
42615;DHT22;28754;47.700;7.924;2023-09-12T04:20:51;21.60;99.90
42615;DHT22;28754;47.700;7.924;2023-09-12T04:23:37;21.60;99.90
42615;DHT22;28754;47.700;7.924;2023-09-12T04:26:24;21.70;99.90
42615;DHT22;28754;47.700;7.924;2023-09-12T04:29:11;21.70;99.90
42615;DHT22;28754;47.700;7.924;2023-09-12T04:31:57;21.70;99.90
42615;DHT22;28754;47.700;7.924;2023-09-12T04:34:46;21.70;99.90
42615;DHT22;28754;47.700;7.924;2023-09-12T04:37:33;21.70;99.90
42615;DHT22;28754;47.700;7.924;2023-09-12T04:40:20;21.70;99.90
42615;DHT22;28754;47.700;7.924;2023-09-12T04:43:06;21.60;99.90
42615;DHT22;28754;47.700;7.924;2023-09-12T04:45:54;21.60;99.90
42615;DHT22;28754;47.700;7.924;2023-09-12T04:48:40;21.60;99.90
42615;DHT22;28754;47.700;7.924;2023-09-12T04:51:27;21.60;99.90
42615;DHT22;28754;47.700;7.924;2023-09-12T04:54:14;21.60;99.90
42615;DHT22;28754;47.700;7.924;2023-09-12T04:57:00;21.60;99.90
42615;DHT22;28754;47.700;7.924;2023-09-12T04:59:47;21.50;99.90
42615;DHT22;28754;47.700;7.924;2023-09-12T05:02:34;21.50;99.90
42615;DHT22;28754;47.700;7.924;2023-09-12T05:05:20;21.60;99.90
42615;DHT22;28754;47.700;7.924;2023-09-12T05:08:07;21.50;99.90
42615;DHT22;28754;47.700;7.924;2023-09-12T05:10:54;21.60;99.90
42615;DHT22;28754;47.700;7.924;2023-09-12T05:13:41;21.60;99.90
42615;DHT22;28754;47.700;7.924;2023-09-12T05:16:28;21.60;99.90
42615;DHT22;28754;47.700;7.924;2023-09-12T05:19:17;21.70;99.90
42615;DHT22;28754;47.700;7.924;2023-09-12T05:22:04;21.70;99.90
42615;DHT22;28754;47.700;7.924;2023-09-12T05:24:51;21.70;99.90
42615;DHT22;28754;47.700;7.924;2023-09-12T05:27:38;21.80;99.90
42615;DHT22;28754;47.700;7.924;2023-09-12T05:30:27;21.90;99.90
42615;DHT22;28754;47.700;7.924;2023-09-12T05:33:17;21.80;99.90
42615;DHT22;28754;47.700;7.924;2023-09-12T05:36:04;21.90;99.90
42615;DHT22;28754;47.700;7.924;2023-09-12T05:38:50;21.80;99.90
42615;DHT22;28754;47.700;7.924;2023-09-12T05:41:37;22.00;99.90
42615;DHT22;28754;47.700;7.924;2023-09-12T05:44:24;22.20;99.90
42615;DHT22;28754;47.700;7.924;2023-09-12T05:47:11;22.20;99.90
42615;DHT22;28754;47.700;7.924;2023-09-12T05:49:58;22.30;99.90
42615;DHT22;28754;47.700;7.924;2023-09-12T05:52:47;22.40;99.90
42615;DHT22;28754;47.700;7.924;2023-09-12T05:55:34;22.50;99.90
42615;DHT22;28754;47.700;7.924;2023-09-12T05:58:21;22.80;99.90
42615;DHT22;28754;47.700;7.924;2023-09-12T06:01:08;23.00;99.90
42615;DHT22;28754;47.700;7.924;2023-09-12T06:03:55;23.40;99.90
42615;DHT22;28754;47.700;7.924;2023-09-12T06:06:42;24.90;99.90
42615;DHT22;28754;47.700;7.924;2023-09-12T06:09:29;26.00;99.90
42615;DHT22;28754;47.700;7.924;2023-09-12T06:12:16;26.50;99.90
42615;DHT22;28754;47.700;7.924;2023-09-12T06:15:03;27.50;99.90
42615;DHT22;28754;47.700;7.924;2023-09-12T06:17:50;28.50;99.90
42615;DHT22;28754;47.700;7.924;2023-09-12T06:20:37;28.90;99.90
42615;DHT22;28754;47.700;7.924;2023-09-12T06:23:23;29.40;99.90
42615;DHT22;28754;47.700;7.924;2023-09-12T06:26:10;28.80;99.90
42615;DHT22;28754;47.700;7.924;2023-09-12T06:28:57;29.20;99.90
42615;DHT22;28754;47.700;7.924;2023-09-12T06:31:43;29.60;99.90
42615;DHT22;28754;47.700;7.924;2023-09-12T06:34:30;28.40;99.90
42615;DHT22;28754;47.700;7.924;2023-09-12T06:37:17;27.70;99.90
42615;DHT22;28754;47.700;7.924;2023-09-12T06:40:06;27.50;99.90
42615;DHT22;28754;47.700;7.924;2023-09-12T06:42:53;27.30;99.90
42615;DHT22;28754;47.700;7.924;2023-09-12T06:45:43;26.60;99.90
42615;DHT22;28754;47.700;7.924;2023-09-12T06:48:30;25.90;99.90
42615;DHT22;28754;47.700;7.924;2023-09-12T06:51:17;25.80;99.90
42615;DHT22;28754;47.700;7.924;2023-09-12T06:54:04;25.70;99.90
42615;DHT22;28754;47.700;7.924;2023-09-12T06:56:50;25.80;99.90
42615;DHT22;28754;47.700;7.924;2023-09-12T06:59:37;25.40;99.90
42615;DHT22;28754;47.700;7.924;2023-09-12T07:02:24;24.80;99.90
42615;DHT22;28754;47.700;7.924;2023-09-12T07:05:12;24.80;99.90
42615;DHT22;28754;47.700;7.924;2023-09-12T07:07:59;24.90;99.90
42615;DHT22;28754;47.700;7.924;2023-09-12T07:10:46;25.00;99.90
42615;DHT22;28754;47.700;7.924;2023-09-12T07:13:33;25.00;99.90
42615;DHT22;28754;47.700;7.924;2023-09-12T07:16:19;24.00;99.90
42615;DHT22;28754;47.700;7.924;2023-09-12T07:19:06;23.80;99.90
42615;DHT22;28754;47.700;7.924;2023-09-12T07:21:53;24.00;99.90
42615;DHT22;28754;47.700;7.924;2023-09-12T07:24:40;24.20;99.90
42615;DHT22;28754;47.700;7.924;2023-09-12T07:27:28;23.80;99.90
42615;DHT22;28754;47.700;7.924;2023-09-12T07:30:15;24.40;99.90
42615;DHT22;28754;47.700;7.924;2023-09-12T07:33:03;24.60;99.90
42615;DHT22;28754;47.700;7.924;2023-09-12T07:35:53;24.50;99.90
42615;DHT22;28754;47.700;7.924;2023-09-12T07:38:40;24.80;99.90
42615;DHT22;28754;47.700;7.924;2023-09-12T07:41:28;25.30;99.90
42615;DHT22;28754;47.700;7.924;2023-09-12T07:44:15;25.50;99.90
42615;DHT22;28754;47.700;7.924;2023-09-12T07:47:03;25.80;99.90
42615;DHT22;28754;47.700;7.924;2023-09-12T07:49:53;25.70;99.90
42615;DHT22;28754;47.700;7.924;2023-09-12T07:52:42;25.70;99.90
42615;DHT22;28754;47.700;7.924;2023-09-12T07:55:28;25.90;99.90
42615;DHT22;28754;47.700;7.924;2023-09-12T07:58:18;26.10;99.90
42615;DHT22;28754;47.700;7.924;2023-09-12T08:01:10;25.60;99.90
42615;DHT22;28754;47.700;7.924;2023-09-12T08:03:57;25.40;99.90
42615;DHT22;28754;47.700;7.924;2023-09-12T08:06:43;25.40;99.90
42615;DHT22;28754;47.700;7.924;2023-09-12T08:12:43;26.10;99.90
42615;DHT22;28754;47.700;7.924;2023-09-12T08:15:30;26.50;99.90
42615;DHT22;28754;47.700;7.924;2023-09-12T08:18:17;26.20;99.90
42615;DHT22;28754;47.700;7.924;2023-09-12T08:21:03;26.20;99.90
42615;DHT22;28754;47.700;7.924;2023-09-12T08:23:50;26.50;99.90
42615;DHT22;28754;47.700;7.924;2023-09-12T08:26:37;26.50;99.90
42615;DHT22;28754;47.700;7.924;2023-09-12T08:29:23;26.60;99.90
42615;DHT22;28754;47.700;7.924;2023-09-12T08:32:10;26.70;99.90
42615;DHT22;28754;47.700;7.924;2023-09-12T08:34:57;26.50;99.90
42615;DHT22;28754;47.700;7.924;2023-09-12T08:37:45;26.30;99.90
42615;DHT22;28754;47.700;7.924;2023-09-12T08:40:35;26.50;99.90
42615;DHT22;28754;47.700;7.924;2023-09-12T08:43:22;26.50;99.90
42615;DHT22;28754;47.700;7.924;2023-09-12T08:46:09;26.50;99.90
42615;DHT22;28754;47.700;7.924;2023-09-12T08:48:57;26.50;99.90
42615;DHT22;28754;47.700;7.924;2023-09-12T08:51:44;26.30;99.90
42615;DHT22;28754;47.700;7.924;2023-09-12T08:54:32;26.50;99.90
42615;DHT22;28754;47.700;7.924;2023-09-12T08:57:19;26.30;99.90
42615;DHT22;28754;47.700;7.924;2023-09-12T09:00:08;26.10;99.90
42615;DHT22;28754;47.700;7.924;2023-09-12T09:02:59;26.10;99.90
42615;DHT22;28754;47.700;7.924;2023-09-12T09:05:47;26.60;99.90
42615;DHT22;28754;47.700;7.924;2023-09-12T09:08:35;26.90;99.90
42615;DHT22;28754;47.700;7.924;2023-09-12T09:11:23;26.50;99.90
42615;DHT22;28754;47.700;7.924;2023-09-12T09:14:13;26.50;99.90
42615;DHT22;28754;47.700;7.924;2023-09-12T09:17:00;26.40;99.90
42615;DHT22;28754;47.700;7.924;2023-09-12T09:19:47;26.90;99.90
42615;DHT22;28754;47.700;7.924;2023-09-12T09:22:34;26.90;99.90
42615;DHT22;28754;47.700;7.924;2023-09-12T09:25:21;26.70;99.90
42615;DHT22;28754;47.700;7.924;2023-09-12T09:28:18;26.70;99.90
42615;DHT22;28754;47.700;7.924;2023-09-12T09:31:11;26.80;99.90
42615;DHT22;28754;47.700;7.924;2023-09-12T09:33:59;26.80;99.90
42615;DHT22;28754;47.700;7.924;2023-09-12T09:36:51;26.80;99.90
42615;DHT22;28754;47.700;7.924;2023-09-12T09:39:39;27.10;99.90
42615;DHT22;28754;47.700;7.924;2023-09-12T09:42:28;27.30;99.90
42615;DHT22;28754;47.700;7.924;2023-09-12T09:45:15;27.70;99.90
42615;DHT22;28754;47.700;7.924;2023-09-12T09:48:05;28.80;99.90
42615;DHT22;28754;47.700;7.924;2023-09-12T09:50:53;29.80;99.90
42615;DHT22;28754;47.700;7.924;2023-09-12T09:53:51;30.40;99.90
42615;DHT22;28754;47.700;7.924;2023-09-12T09:56:46;30.50;99.90
42615;DHT22;28754;47.700;7.924;2023-09-12T09:59:39;30.00;99.90
42615;DHT22;28754;47.700;7.924;2023-09-12T10:02:26;29.60;99.90
42615;DHT22;28754;47.700;7.924;2023-09-12T10:05:14;29.10;99.90
42615;DHT22;28754;47.700;7.924;2023-09-12T10:08:06;28.70;99.90
42615;DHT22;28754;47.700;7.924;2023-09-12T10:10:56;28.40;99.90
42615;DHT22;28754;47.700;7.924;2023-09-12T10:13:50;28.30;99.90
42615;DHT22;28754;47.700;7.924;2023-09-12T10:16:45;28.30;99.90
42615;DHT22;28754;47.700;7.924;2023-09-12T10:19:54;28.30;99.90
42615;DHT22;28754;47.700;7.924;2023-09-12T10:23:00;28.30;99.90
42615;DHT22;28754;47.700;7.924;2023-09-12T10:25:55;28.60;99.90
42615;DHT22;28754;47.700;7.924;2023-09-12T10:28:43;28.60;99.90
42615;DHT22;28754;47.700;7.924;2023-09-12T10:31:31;28.00;99.90
42615;DHT22;28754;47.700;7.924;2023-09-12T10:34:20;27.80;99.90
42615;DHT22;28754;47.700;7.924;2023-09-12T10:37:08;28.40;99.90
42615;DHT22;28754;47.700;7.924;2023-09-12T10:39:56;28.30;99.90
42615;DHT22;28754;47.700;7.924;2023-09-12T10:42:44;28.50;99.90
42615;DHT22;28754;47.700;7.924;2023-09-12T10:45:36;28.10;99.90
42615;DHT22;28754;47.700;7.924;2023-09-12T10:48:23;28.40;99.90
42615;DHT22;28754;47.700;7.924;2023-09-12T10:51:10;28.10;99.90
42615;DHT22;28754;47.700;7.924;2023-09-12T10:53:59;28.20;99.90
42615;DHT22;28754;47.700;7.924;2023-09-12T10:56:46;28.20;99.90
42615;DHT22;28754;47.700;7.924;2023-09-12T10:59:37;28.40;99.90
42615;DHT22;28754;47.700;7.924;2023-09-12T11:02:43;28.50;99.90
42615;DHT22;28754;47.700;7.924;2023-09-12T11:08:19;29.50;99.90
42615;DHT22;28754;47.700;7.924;2023-09-12T11:11:19;30.40;99.90
42615;DHT22;28754;47.700;7.924;2023-09-12T11:14:07;30.70;99.90
42615;DHT22;28754;47.700;7.924;2023-09-12T11:19:53;29.30;99.90
42615;DHT22;28754;47.700;7.924;2023-09-12T11:22:45;29.60;99.90
42615;DHT22;28754;47.700;7.924;2023-09-12T11:25:32;29.40;99.90
42615;DHT22;28754;47.700;7.924;2023-09-12T11:28:20;29.20;99.90
42615;DHT22;28754;47.700;7.924;2023-09-12T11:31:06;30.40;99.90
42615;DHT22;28754;47.700;7.924;2023-09-12T11:33:53;30.00;99.90
42615;DHT22;28754;47.700;7.924;2023-09-12T11:36:41;29.60;99.90
42615;DHT22;28754;47.700;7.924;2023-09-12T11:39:31;30.20;99.90
42615;DHT22;28754;47.700;7.924;2023-09-12T11:42:19;29.90;99.90
42615;DHT22;28754;47.700;7.924;2023-09-12T11:45:12;29.50;99.90
42615;DHT22;28754;47.700;7.924;2023-09-12T11:47:58;29.20;99.90
42615;DHT22;28754;47.700;7.924;2023-09-12T11:50:53;29.60;99.90
42615;DHT22;28754;47.700;7.924;2023-09-12T11:53:41;29.50;99.90
42615;DHT22;28754;47.700;7.924;2023-09-12T11:56:28;29.00;99.90
42615;DHT22;28754;47.700;7.924;2023-09-12T11:59:17;29.60;99.90
42615;DHT22;28754;47.700;7.924;2023-09-12T12:02:09;30.10;99.90
42615;DHT22;28754;47.700;7.924;2023-09-12T12:04:57;29.50;99.90
42615;DHT22;28754;47.700;7.924;2023-09-12T12:07:46;29.70;99.90
42615;DHT22;28754;47.700;7.924;2023-09-12T12:10:35;30.30;99.90
42615;DHT22;28754;47.700;7.924;2023-09-12T12:13:22;30.30;99.90
42615;DHT22;28754;47.700;7.924;2023-09-12T12:16:18;30.60;99.90
42615;DHT22;28754;47.700;7.924;2023-09-12T12:19:05;30.80;99.90
42615;DHT22;28754;47.700;7.924;2023-09-12T12:21:51;31.60;99.90
42615;DHT22;28754;47.700;7.924;2023-09-12T12:24:40;31.20;99.90
42615;DHT22;28754;47.700;7.924;2023-09-12T12:27:28;31.80;99.90
42615;DHT22;28754;47.700;7.924;2023-09-12T12:30:15;32.40;99.90
42615;DHT22;28754;47.700;7.924;2023-09-12T12:33:07;32.70;99.90
42615;DHT22;28754;47.700;7.924;2023-09-12T12:36:03;33.30;99.90
42615;DHT22;28754;47.700;7.924;2023-09-12T12:38:51;33.80;99.90
42615;DHT22;28754;47.700;7.924;2023-09-12T12:41:38;33.40;99.90
42615;DHT22;28754;47.700;7.924;2023-09-12T12:44:33;32.60;99.90
42615;DHT22;28754;47.700;7.924;2023-09-12T12:47:26;33.00;99.90
42615;DHT22;28754;47.700;7.924;2023-09-12T12:50:16;33.10;99.90
42615;DHT22;28754;47.700;7.924;2023-09-12T12:53:05;32.80;99.90
42615;DHT22;28754;47.700;7.924;2023-09-12T12:55:52;32.30;99.90
42615;DHT22;28754;47.700;7.924;2023-09-12T12:58:39;32.00;99.90
42615;DHT22;28754;47.700;7.924;2023-09-12T13:01:31;32.10;99.90
42615;DHT22;28754;47.700;7.924;2023-09-12T13:04:17;31.80;99.90
42615;DHT22;28754;47.700;7.924;2023-09-12T13:07:04;32.30;99.90
42615;DHT22;28754;47.700;7.924;2023-09-12T13:09:51;32.20;99.90
42615;DHT22;28754;47.700;7.924;2023-09-12T13:12:38;31.70;99.90
42615;DHT22;28754;47.700;7.924;2023-09-12T13:15:25;31.50;99.90
42615;DHT22;28754;47.700;7.924;2023-09-12T13:18:12;31.10;99.90
42615;DHT22;28754;47.700;7.924;2023-09-12T13:20:59;31.20;99.90
42615;DHT22;28754;47.700;7.924;2023-09-12T13:23:46;29.90;99.90
42615;DHT22;28754;47.700;7.924;2023-09-12T13:26:32;30.00;99.90
42615;DHT22;28754;47.700;7.924;2023-09-12T13:29:19;31.10;99.90
42615;DHT22;28754;47.700;7.924;2023-09-12T13:32:06;31.90;99.90
42615;DHT22;28754;47.700;7.924;2023-09-12T13:34:53;32.50;99.90
42615;DHT22;28754;47.700;7.924;2023-09-12T13:37:40;32.60;99.90
42615;DHT22;28754;47.700;7.924;2023-09-12T13:40:27;33.00;99.90
42615;DHT22;28754;47.700;7.924;2023-09-12T13:43:14;33.80;99.90
42615;DHT22;28754;47.700;7.924;2023-09-12T13:46:04;35.60;99.90
42615;DHT22;28754;47.700;7.924;2023-09-12T13:48:50;35.80;99.90
42615;DHT22;28754;47.700;7.924;2023-09-12T13:51:37;37.00;99.90
42615;DHT22;28754;47.700;7.924;2023-09-12T13:54:24;36.50;99.90
42615;DHT22;28754;47.700;7.924;2023-09-12T13:57:10;37.60;99.90
42615;DHT22;28754;47.700;7.924;2023-09-12T13:59:57;36.80;99.90
42615;DHT22;28754;47.700;7.924;2023-09-12T14:02:46;37.20;99.90
42615;DHT22;28754;47.700;7.924;2023-09-12T14:05:33;36.60;99.90
42615;DHT22;28754;47.700;7.924;2023-09-12T14:08:20;35.30;99.90
42615;DHT22;28754;47.700;7.924;2023-09-12T14:11:07;34.90;99.90
42615;DHT22;28754;47.700;7.924;2023-09-12T14:13:54;35.70;99.90
42615;DHT22;28754;47.700;7.924;2023-09-12T14:16:41;34.10;99.90
42615;DHT22;28754;47.700;7.924;2023-09-12T14:19:28;35.10;99.90
42615;DHT22;28754;47.700;7.924;2023-09-12T14:22:16;34.30;99.90
42615;DHT22;28754;47.700;7.924;2023-09-12T14:25:02;33.90;99.90
42615;DHT22;28754;47.700;7.924;2023-09-12T14:27:49;33.90;99.90
42615;DHT22;28754;47.700;7.924;2023-09-12T14:30:36;33.90;99.90
42615;DHT22;28754;47.700;7.924;2023-09-12T14:33:24;32.80;99.90
42615;DHT22;28754;47.700;7.924;2023-09-12T14:36:11;33.00;99.90
42615;DHT22;28754;47.700;7.924;2023-09-12T14:38:57;33.40;99.90
42615;DHT22;28754;47.700;7.924;2023-09-12T14:41:44;33.90;99.90
42615;DHT22;28754;47.700;7.924;2023-09-12T14:44:37;34.20;99.90
42615;DHT22;28754;47.700;7.924;2023-09-12T14:47:24;33.10;99.90
42615;DHT22;28754;47.700;7.924;2023-09-12T14:50:13;32.90;99.90
42615;DHT22;28754;47.700;7.924;2023-09-12T14:53:00;31.70;99.90
42615;DHT22;28754;47.700;7.924;2023-09-12T14:55:47;31.80;99.90
42615;DHT22;28754;47.700;7.924;2023-09-12T14:58:34;32.10;99.90
42615;DHT22;28754;47.700;7.924;2023-09-12T15:01:21;31.20;99.90
42615;DHT22;28754;47.700;7.924;2023-09-12T15:04:09;31.00;99.90
42615;DHT22;28754;47.700;7.924;2023-09-12T15:06:57;31.70;99.90
42615;DHT22;28754;47.700;7.924;2023-09-12T15:09:44;31.40;99.90
42615;DHT22;28754;47.700;7.924;2023-09-12T15:12:31;31.00;99.90
42615;DHT22;28754;47.700;7.924;2023-09-12T15:15:17;31.40;99.90
42615;DHT22;28754;47.700;7.924;2023-09-12T15:18:04;31.30;99.90
42615;DHT22;28754;47.700;7.924;2023-09-12T15:20:52;31.80;99.90
42615;DHT22;28754;47.700;7.924;2023-09-12T15:23:39;31.40;99.90
42615;DHT22;28754;47.700;7.924;2023-09-12T15:26:26;31.90;99.90
42615;DHT22;28754;47.700;7.924;2023-09-12T15:29:12;31.80;99.90
42615;DHT22;28754;47.700;7.924;2023-09-12T15:32:02;31.90;99.90
42615;DHT22;28754;47.700;7.924;2023-09-12T15:34:52;31.60;99.90
42615;DHT22;28754;47.700;7.924;2023-09-12T15:37:39;31.80;99.90
42615;DHT22;28754;47.700;7.924;2023-09-12T15:40:39;31.90;99.90
42615;DHT22;28754;47.700;7.924;2023-09-12T15:43:29;32.00;99.90
42615;DHT22;28754;47.700;7.924;2023-09-12T15:46:16;31.50;99.90
42615;DHT22;28754;47.700;7.924;2023-09-12T15:49:16;31.30;99.90
42615;DHT22;28754;47.700;7.924;2023-09-12T15:52:03;31.10;99.90
42615;DHT22;28754;47.700;7.924;2023-09-12T15:54:50;31.30;99.90
42615;DHT22;28754;47.700;7.924;2023-09-12T15:57:41;31.40;99.90
42615;DHT22;28754;47.700;7.924;2023-09-12T16:05:12;31.00;99.90
42615;DHT22;28754;47.700;7.924;2023-09-12T16:07:59;30.50;99.90
42615;DHT22;28754;47.700;7.924;2023-09-12T16:10:47;30.30;99.90
42615;DHT22;28754;47.700;7.924;2023-09-12T16:13:33;29.90;99.90
42615;DHT22;28754;47.700;7.924;2023-09-12T16:16:21;29.80;99.90
42615;DHT22;28754;47.700;7.924;2023-09-12T16:19:07;29.80;99.90
42615;DHT22;28754;47.700;7.924;2023-09-12T16:21:55;29.90;99.90
42615;DHT22;28754;47.700;7.924;2023-09-12T16:24:42;29.20;99.90
42615;DHT22;28754;47.700;7.924;2023-09-12T16:27:28;29.40;99.90
42615;DHT22;28754;47.700;7.924;2023-09-12T16:30:15;29.10;99.90
42615;DHT22;28754;47.700;7.924;2023-09-12T16:33:02;29.10;99.90
42615;DHT22;28754;47.700;7.924;2023-09-12T16:35:49;29.10;99.90
42615;DHT22;28754;47.700;7.924;2023-09-12T16:38:36;28.70;99.90
42615;DHT22;28754;47.700;7.924;2023-09-12T16:41:22;28.20;99.90
42615;DHT22;28754;47.700;7.924;2023-09-12T16:44:09;28.40;99.90
42615;DHT22;28754;47.700;7.924;2023-09-12T16:46:56;28.40;99.90
42615;DHT22;28754;47.700;7.924;2023-09-12T16:49:42;28.50;99.90
42615;DHT22;28754;47.700;7.924;2023-09-12T16:52:30;28.50;99.90
42615;DHT22;28754;47.700;7.924;2023-09-12T16:55:18;28.50;99.90
42615;DHT22;28754;47.700;7.924;2023-09-12T16:58:05;28.60;99.90
42615;DHT22;28754;47.700;7.924;2023-09-12T17:00:53;28.60;99.90
42615;DHT22;28754;47.700;7.924;2023-09-12T17:03:43;28.80;99.90
42615;DHT22;28754;47.700;7.924;2023-09-12T17:06:30;28.70;99.90
42615;DHT22;28754;47.700;7.924;2023-09-12T17:09:17;28.70;99.90
42615;DHT22;28754;47.700;7.924;2023-09-12T17:12:06;28.60;99.90
42615;DHT22;28754;47.700;7.924;2023-09-12T17:14:53;28.30;99.90
42615;DHT22;28754;47.700;7.924;2023-09-12T17:17:40;28.30;99.90
42615;DHT22;28754;47.700;7.924;2023-09-12T17:20:27;28.20;99.90
42615;DHT22;28754;47.700;7.924;2023-09-12T17:23:13;28.20;99.90
42615;DHT22;28754;47.700;7.924;2023-09-12T17:26:00;27.90;99.90
42615;DHT22;28754;47.700;7.924;2023-09-12T17:28:47;26.90;99.90
42615;DHT22;28754;47.700;7.924;2023-09-12T17:31:33;25.70;99.90
42615;DHT22;28754;47.700;7.924;2023-09-12T17:34:42;25.20;99.90
42615;DHT22;28754;47.700;7.924;2023-09-12T17:37:30;25.60;99.90
42615;DHT22;28754;47.700;7.924;2023-09-12T17:40:17;25.30;99.90
42615;DHT22;28754;47.700;7.924;2023-09-12T17:43:04;25.40;99.90
42615;DHT22;28754;47.700;7.924;2023-09-12T17:45:51;25.30;99.90
42615;DHT22;28754;47.700;7.924;2023-09-12T17:48:39;25.10;99.90
42615;DHT22;28754;47.700;7.924;2023-09-12T17:51:27;25.00;99.90
42615;DHT22;28754;47.700;7.924;2023-09-12T17:54:15;25.20;99.90
42615;DHT22;28754;47.700;7.924;2023-09-12T17:57:02;25.40;99.90